Archival Weather

Václav Havel Intl Apt

Prague, Czechia (LKPR)

Report from: Monday, May 29, 2023 10:30 PM CEST
Current time: Sunday, July 14, 2024 1:00 PM CEST

Current weather – Weather history – Daily summaries
Weather forecast

Temperature15.0°C (59.0°F)
Dew point6.0°C (42.8°F)
Winds 5 kts (2.6 m/s, 5.8 mph) Vrb
Winds variableWinds variable from North-Northwest (340°) to East-Northeast (70°)
Clouds Sky clear
Altimeter30.12 in.Hg (1020 mB)
Relative humidity55 %
Density altitude-91 ft. (-28 m)
Remarks Ceiling and visibility OK
No significant changes expected in the next two hours
Flight conditions Visual Meteorological Conditions
Raw dataLKPR 292030Z 36005KT 340V070 CAVOK 15/06 Q1020 NOSIG
An error has occurred. This application may no longer respond until reloaded. Reload 🗙